Time;durP1;ratioP1;P1;durP2;ratioP2;P2;SDS_P1;SDS_P2;PMS_P1;PMS_P2;Temp;Humidity;BMP_temperature;BMP_pressure;BME280_temperature;BME280_humidity;BME280_pressure;Samples;Min_cycle;Max_cycle;Signal;HPM_P1;HPM_P2
2022/04/17 00:00:17;;;;;;;1.40;0.90;;;;;;;6.85;55.28;99786.25;1718659;81;20982;-67
2022/04/17 00:02:44;;;;;;;1.07;0.80;;;;;;;6.82;55.31;99786.04;1711723;83;21089;-66
2022/04/17 00:05:11;;;;;;;1.27;1.10;;;;;;;6.83;55.29;99783.73;1720918;83;21001;-67
2022/04/17 00:07:38;;;;;;;2.65;1.40;;;;;;;7.02;54.64;99779.41;1711236;83;22069;-67
2022/04/17 00:10:08;;;;;;;1.02;1.02;;;;;;;6.87;55.27;99772.87;1719765;81;20891;-66
2022/04/17 00:12:39;;;;;;;0.93;0.93;;;;;;;6.86;55.35;99775.19;1693549;83;20963;-68
2022/04/17 00:15:07;;;;;;;1.30;1.20;;;;;;;6.92;55.33;99766.67;1724426;83;21510;-67
2022/04/17 00:17:34;;;;;;;1.15;1.05;;;;;;;6.90;55.40;99770.80;1727254;83;20990;-68
2022/04/17 00:20:01;;;;;;;1.52;1.32;;;;;;;6.89;55.42;99766.47;1696771;82;21263;-67
2022/04/17 00:22:27;;;;;;;1.40;1.30;;;;;;;6.86;55.50;99767.26;1687003;84;20954;-66
2022/04/17 00:24:55;;;;;;;1.92;1.75;;;;;;;6.84;55.59;99763.41;1678305;84;20939;-66
2022/04/17 00:27:22;;;;;;;1.50;1.40;;;;;;;6.79;55.71;99757.70;1677535;85;21545;-68
2022/04/17 00:29:48;;;;;;;1.82;1.72;;;;;;;6.74;55.88;99761.26;1679339;84;20903;-68
2022/04/17 00:32:16;;;;;;;1.52;1.42;;;;;;;6.69;55.99;99759.04;1676754;85;21283;-67
2022/04/17 00:34:44;;;;;;;1.37;1.27;;;;;;;6.66;56.23;99756.67;1677624;85;21035;-66
2022/04/17 00:37:11;;;;;;;1.47;1.37;;;;;;;6.61;56.43;99755.41;1678115;85;21003;-66
2022/04/17 00:39:40;;;;;;;1.37;1.20;;;;;;;6.57;56.70;99750.06;1670515;84;20983;-67
2022/04/17 00:42:09;;;;;;;1.07;0.90;;;;;;;6.59;56.92;99756.05;1672630;84;21007;-68
2022/04/17 00:44:37;;;;;;;1.07;1.00;;;;;;;6.65;56.90;99764.23;1722520;83;21323;-65
2022/04/17 00:47:04;;;;;;;1.22;1.12;;;;;;;6.69;56.94;99751.59;1720368;81;21504;-66
2022/04/17 00:49:32;;;;;;;1.10;1.00;;;;;;;6.70;57.05;99755.41;1721054;83;21523;-66
2022/04/17 00:51:59;;;;;;;0.90;0.88;;;;;;;6.69;57.15;99755.08;1706959;81;21137;-66
2022/04/17 00:54:27;;;;;;;0.95;0.95;;;;;;;6.68;57.27;99757.36;1722047;83;21008;-67
2022/04/17 00:56:53;;;;;;;1.32;1.00;;;;;;;6.68;57.43;99763.13;1719544;83;21161;-67
2022/04/17 00:59:21;;;;;;;0.90;0.90;;;;;;;6.68;57.56;99760.48;1722317;82;21025;-67
2022/04/17 01:01:47;;;;;;;1.10;1.00;;;;;;;6.65;57.73;99760.75;1708851;81;21431;-66
2022/04/17 01:04:16;;;;;;;1.20;1.10;;;;;;;6.61;57.94;99760.22;1697790;83;20936;-67
2022/04/17 01:06:44;;;;;;;1.00;1.00;;;;;;;6.60;58.13;99755.05;1713447;83;20927;-66
2022/04/17 01:09:11;;;;;;;1.10;1.00;;;;;;;6.62;58.19;99767.16;1718416;83;21169;-67
2022/04/17 01:11:40;;;;;;;1.57;0.90;;;;;;;6.65;58.25;99758.11;1719800;81;21568;-66
2022/04/17 01:14:08;;;;;;;0.93;0.93;;;;;;;6.67;58.33;99760.97;1719129;83;20860;-64
2022/04/17 01:16:36;;;;;;;1.05;0.98;;;;;;;6.67;58.31;99756.19;1719235;83;20951;-67
2022/04/17 01:19:11;;;;;;;0.88;0.85;;;;;;;6.64;58.45;99744.56;1733324;81;21162;-66
2022/04/17 01:21:35;;;;;;;0.98;0.80;;;;;;;7.22;57.00;99743.52;1698964;83;20955;-67
2022/04/17 01:26:56;;;;;;;0.98;0.90;;;;;;;6.68;58.20;99747.27;1699707;83;21398;-66
2022/04/17 01:29:32;;;;;;;1.55;0.78;;;;;;;6.53;58.97;99756.58;1693978;83;20987;-67
2022/04/17 01:31:59;;;;;;;0.57;0.57;;;;;;;6.49;59.16;99753.88;1692478;83;20973;-67
2022/04/17 01:34:26;;;;;;;0.72;0.72;;;;;;;6.54;59.14;99749.86;1728955;82;21159;-65
2022/04/17 01:36:54;;;;;;;0.78;0.78;;;;;;;6.76;58.63;99744.28;1717768;82;21488;-69
2022/04/17 01:39:21;;;;;;;0.82;0.82;;;;;;;6.46;59.00;99748.87;1723991;83;21349;-65
2022/04/17 01:41:51;;;;;;;0.68;0.68;;;;;;;6.40;59.07;99748.08;1726377;82;20954;-65
2022/04/17 01:44:19;;;;;;;0.95;0.95;;;;;;;6.48;59.03;99750.88;1721550;82;20870;-66
2022/04/17 01:46:47;;;;;;;0.62;0.62;;;;;;;6.39;59.21;99745.92;1721688;82;21266;-67
2022/04/17 01:49:18;;;;;;;0.50;0.50;;;;;;;6.36;59.44;99749.34;1725994;81;20890;-68
2022/04/17 01:51:47;;;;;;;0.75;0.72;;;;;;;6.37;59.62;99747.88;1738799;81;21011;-68
2022/04/17 01:54:16;;;;;;;0.82;0.80;;;;;;;6.39;59.69;99747.75;1714930;83;21054;-68
2022/04/17 01:56:43;;;;;;;0.80;0.80;;;;;;;6.40;59.92;99746.28;1718883;82;20981;-68
2022/04/17 01:59:11;;;;;;;0.82;0.82;;;;;;;6.41;60.04;99755.89;1722923;83;22241;-65
2022/04/17 02:01:39;;;;;;;1.10;1.00;;;;;;;6.44;60.28;99748.17;1687224;83;20950;-67
2022/04/17 02:04:07;;;;;;;1.37;0.90;;;;;;;6.42;60.33;99741.69;1723677;81;20887;-67
2022/04/17 02:06:34;;;;;;;0.78;0.78;;;;;;;6.44;60.42;99746.34;1724938;83;20919;-65
2022/04/17 02:09:01;;;;;;;0.70;0.70;;;;;;;6.52;59.96;99743.84;1725393;82;21543;-66
2022/04/17 02:11:27;;;;;;;0.70;0.70;;;;;;;6.60;59.64;99747.13;1727428;82;21378;-68
2022/04/17 02:13:54;;;;;;;1.32;1.00;;;;;;;6.83;59.63;99741.89;1727151;81;20958;-68
2022/04/17 02:16:22;;;;;;;0.65;0.65;;;;;;;6.56;60.06;99746.58;1716611;81;20982;-68
2022/04/17 02:18:49;;;;;;;0.80;0.80;;;;;;;6.55;59.93;99743.58;1724832;81;20907;-63
2022/04/17 02:21:17;;;;;;;0.88;0.88;;;;;;;6.56;59.86;99743.94;1711892;82;21410;-66
2022/04/17 02:23:44;;;;;;;1.10;0.90;;;;;;;6.56;59.76;99750.55;1722794;82;23283;-65
2022/04/17 02:26:12;;;;;;;1.10;1.00;;;;;;;6.57;59.77;99752.20;1713826;82;21027;-66
2022/04/17 02:28:40;;;;;;;0.80;0.80;;;;;;;6.56;59.72;99743.09;1704060;83;20896;-68
2022/04/17 02:31:08;;;;;;;0.80;0.80;;;;;;;6.57;59.75;99748.23;1712433;83;21003;-67
2022/04/17 02:33:35;;;;;;;0.82;0.82;;;;;;;6.60;59.75;99751.08;1717105;82;21027;-66
2022/04/17 02:36:01;;;;;;;0.78;0.75;;;;;;;6.60;59.65;99750.60;1713886;83;21173;-67
2022/04/17 02:38:29;;;;;;;2.20;1.00;;;;;;;6.60;59.50;99736.55;1714110;83;20966;-67
2022/04/17 02:40:56;;;;;;;0.90;0.90;;;;;;;6.57;59.35;99742.94;1714211;83;20935;-67
2022/04/17 02:43:23;;;;;;;0.82;0.82;;;;;;;6.55;59.29;99737.45;1726441;82;20902;-66
2022/04/17 02:45:53;;;;;;;0.85;0.85;;;;;;;6.54;59.20;99741.09;1719955;83;20927;-67
2022/04/17 02:48:20;;;;;;;1.57;1.00;;;;;;;6.54;59.18;99737.96;1718365;83;21175;-66
2022/04/17 02:50:48;;;;;;;0.93;0.80;;;;;;;6.57;59.12;99740.30;1705224;82;20975;-68
2022/04/17 02:53:16;;;;;;;1.22;1.10;;;;;;;6.60;59.03;99729.94;1714049;83;20942;-68
2022/04/17 02:55:45;;;;;;;1.10;0.90;;;;;;;6.66;58.89;99736.00;1721564;82;20978;-67
2022/04/17 02:58:12;;;;;;;0.80;0.80;;;;;;;6.69;58.75;99731.76;1726196;81;20935;-65
2022/04/17 03:06:14;;;;;;;0.90;0.90;;;;;;;6.64;58.80;99732.19;1718873;82;20963;-66
2022/04/17 03:08:43;;;;;;;2.05;1.30;;;;;;;6.62;58.88;99738.08;1722527;81;20978;-65
2022/04/17 03:11:11;;;;;;;0.85;0.85;;;;;;;6.61;58.97;99732.45;1718882;82;20938;-67
2022/04/17 03:13:40;;;;;;;1.15;0.90;;;;;;;6.60;58.99;99743.16;1705862;82;22473;-65
2022/04/17 03:16:08;;;;;;;1.05;1.00;;;;;;;6.56;59.09;99743.94;1716197;82;20911;-65
2022/04/17 03:18:36;;;;;;;0.80;0.80;;;;;;;6.53;59.27;99744.20;1704257;82;21461;-68
2022/04/17 03:21:03;;;;;;;1.00;1.00;;;;;;;6.54;59.29;99745.89;1698178;82;20971;-66
2022/04/17 03:23:29;;;;;;;0.90;0.90;;;;;;;6.55;59.29;99745.38;1724924;82;20912;-66
2022/04/17 03:25:56;;;;;;;0.98;0.88;;;;;;;6.59;59.30;99741.02;1716335;83;21355;-65
2022/04/17 03:28:24;;;;;;;0.90;0.90;;;;;;;6.63;59.13;99750.81;1690629;84;21039;-65
2022/04/17 03:30:50;;;;;;;0.72;0.72;;;;;;;6.62;59.05;99744.69;1690402;83;21037;-66
2022/04/17 03:33:17;;;;;;;0.88;0.88;;;;;;;6.60;59.02;99742.67;1690593;84;20955;-67
2022/04/17 03:35:44;;;;;;;1.02;1.00;;;;;;;6.55;59.07;99750.19;1722846;82;21532;-66
2022/04/17 03:38:11;;;;;;;1.30;1.20;;;;;;;6.50;59.26;99756.38;1679546;84;21161;-68
2022/04/17 03:40:39;;;;;;;1.25;1.00;;;;;;;6.48;59.39;99753.52;1680995;84;20892;-66
2022/04/17 03:43:07;;;;;;;1.00;1.00;;;;;;;6.41;59.53;99765.63;1689270;85;20959;-66
2022/04/17 03:45:35;;;;;;;1.10;1.10;;;;;;;6.37;59.70;99766.85;1687618;83;21022;-67
2022/04/17 03:48:02;;;;;;;1.52;1.42;;;;;;;6.38;59.78;99769.86;1683841;85;21071;-66
2022/04/17 03:50:28;;;;;;;1.50;1.37;;;;;;;6.38;59.71;99760.61;1688963;83;21973;-65
2022/04/17 03:52:56;;;;;;;1.02;1.02;;;;;;;6.34;59.54;99768.44;1688773;85;21006;-66
2022/04/17 03:55:24;;;;;;;1.02;1.02;;;;;;;6.35;59.49;99768.80;1691777;83;21489;-66
2022/04/17 03:57:52;;;;;;;1.20;1.10;;;;;;;6.35;59.45;99767.00;1689178;84;21002;-65
2022/04/17 04:00:18;;;;;;;1.10;0.93;;;;;;;6.34;59.50;99770.60;1689186;84;21467;-66
2022/04/17 04:02:49;;;;;;;0.85;0.85;;;;;;;6.33;59.56;99762.34;1660278;85;21160;-64
2022/04/17 04:05:15;;;;;;;1.20;1.10;;;;;;;6.32;59.59;99771.23;1665111;85;21457;-66
2022/04/17 04:07:42;;;;;;;1.00;1.00;;;;;;;6.34;59.67;99769.77;1680632;84;20982;-64
2022/04/17 04:10:10;;;;;;;1.40;1.30;;;;;;;6.34;59.64;99770.60;1724430;82;20891;-65
2022/04/17 04:12:37;;;;;;;1.00;1.00;;;;;;;6.37;59.47;99769.50;1711356;82;20935;-66
2022/04/17 04:15:07;;;;;;;1.00;1.00;;;;;;;6.38;59.23;99772.50;1724088;82;20983;-66
2022/04/17 04:17:34;;;;;;;1.12;1.00;;;;;;;6.38;58.96;99763.25;1723550;82;20955;-66
2022/04/17 04:20:04;;;;;;;1.02;1.00;;;;;;;6.37;58.85;99768.17;1717669;82;21090;-67
2022/04/17 04:22:31;;;;;;;1.20;1.10;;;;;;;6.37;58.83;99768.17;1683541;84;21081;-67
2022/04/17 04:24:59;;;;;;;2.90;1.20;;;;;;;6.36;58.89;99763.88;1694859;84;21461;-65
2022/04/17 04:30:11;;;;;;;1.00;1.00;;;;;;;6.34;58.83;99767.13;1676317;84;21085;-65
2022/04/17 04:32:37;;;;;;;1.45;1.35;;;;;;;6.35;58.93;99772.77;1669922;85;20976;-66
2022/04/17 04:35:06;;;;;;;1.12;1.12;;;;;;;6.38;58.96;99772.50;1678953;84;21006;-66
2022/04/17 04:37:33;;;;;;;1.05;1.05;;;;;;;6.42;59.00;99777.36;1678664;85;21026;-66
2022/04/17 04:39:59;;;;;;;1.10;1.00;;;;;;;6.46;58.92;99768.20;1679422;84;21277;-66
2022/04/17 04:42:26;;;;;;;0.95;0.95;;;;;;;6.50;58.87;99766.95;1679242;85;20989;-67
2022/04/17 04:47:38;;;;;;;1.40;1.30;;;;;;;6.56;58.79;99774.34;1682000;84;20924;-67
2022/04/17 04:50:07;;;;;;;1.47;1.37;;;;;;;6.56;58.91;99776.14;1677606;84;20922;-65
2022/04/17 04:52:37;;;;;;;1.07;1.07;;;;;;;6.57;58.98;99773.86;1679507;85;21820;-67
2022/04/17 04:55:05;;;;;;;1.02;1.00;;;;;;;6.59;59.10;99781.16;1675123;84;20955;-64
2022/04/17 04:57:36;;;;;;;1.60;1.50;;;;;;;6.65;59.15;99787.19;1679468;85;20966;-65
2022/04/17 05:00:05;;;;;;;1.30;1.20;;;;;;;6.66;59.20;99780.46;1679035;84;20995;-67
2022/04/17 05:02:33;;;;;;;1.67;1.57;;;;;;;6.68;59.12;99780.31;1678071;85;21145;-65
2022/04/17 05:05:00;;;;;;;1.27;1.20;;;;;;;6.66;59.12;99782.27;1652226;84;21162;-65
2022/04/17 05:07:26;;;;;;;1.37;1.27;;;;;;;6.65;59.20;99787.19;1679312;85;20931;-66
2022/04/17 05:09:55;;;;;;;1.30;1.20;;;;;;;6.68;59.29;99786.92;1677816;84;21011;-65
2022/04/17 05:12:22;;;;;;;1.27;1.17;;;;;;;6.70;59.15;99783.68;1681957;84;21007;-67
2022/04/17 05:14:50;;;;;;;1.30;1.20;;;;;;;6.71;59.00;99787.97;1678990;84;20939;-65
2022/04/17 05:17:17;;;;;;;1.80;1.55;;;;;;;6.75;58.88;99790.70;1677655;85;21771;-65
2022/04/17 05:19:43;;;;;;;1.35;1.25;;;;;;;6.81;58.88;99792.77;1665103;84;20927;-66
2022/04/17 05:22:16;;;;;;;1.85;1.20;;;;;;;6.87;58.54;99786.94;1690280;83;21512;-68
2022/04/17 05:24:40;;;;;;;1.45;1.35;;;;;;;6.89;58.35;99793.40;1688183;83;21002;-66
2022/04/17 05:27:07;;;;;;;1.62;1.52;;;;;;;6.95;58.31;99792.38;1689708;84;21540;-67
2022/04/17 05:29:33;;;;;;;14.00;10.80;;;;;;;6.99;58.19;99796.39;1690531;84;21165;-67
2022/04/17 05:32:02;;;;;;;3.40;3.10;;;;;;;6.96;57.93;99796.66;1697850;83;21724;-67
2022/04/17 05:34:29;;;;;;;1.65;1.50;;;;;;;6.95;57.88;99798.14;1693993;83;21068;-68
2022/04/17 05:36:56;;;;;;;1.82;1.67;;;;;;;6.99;57.75;99800.88;1692870;84;20959;-66
2022/04/17 05:39:22;;;;;;;1.30;1.20;;;;;;;6.96;57.79;99801.95;1691460;84;20939;-67
2022/04/17 05:41:50;;;;;;;2.55;1.47;;;;;;;7.01;57.82;99798.44;1693025;84;21476;-68
2022/04/17 05:44:17;;;;;;;1.30;1.20;;;;;;;7.04;57.57;99805.25;1699586;83;20975;-65
2022/04/17 05:46:44;;;;;;;1.02;1.00;;;;;;;7.10;57.42;99809.48;1692981;84;20927;-70
2022/04/17 05:49:11;;;;;;;0.82;0.82;;;;;;;7.16;57.22;99801.47;1691230;84;21070;-66
2022/04/17 05:51:39;;;;;;;1.40;1.30;;;;;;;7.21;56.85;99805.38;1683503;84;20935;-68
2022/04/17 05:54:07;;;;;;;1.65;1.55;;;;;;;7.32;56.65;99801.25;1692827;83;21249;-66
2022/04/17 05:56:39;;;;;;;1.70;1.60;;;;;;;7.42;56.63;99807.84;1691015;84;20990;-68
2022/04/17 05:59:02;;;;;;;1.40;1.30;;;;;;;7.53;56.38;99797.58;1689818;84;21013;-68
2022/04/17 06:01:29;;;;;;;1.10;1.10;;;;;;;7.71;55.99;99809.09;1692801;83;21027;-67
2022/04/17 06:03:56;;;;;;;1.30;1.20;;;;;;;7.90;55.54;99800.58;1690805;83;20955;-65
2022/04/17 06:06:23;;;;;;;1.27;1.17;;;;;;;8.80;54.53;99809.11;1692664;83;20945;-68
2022/04/17 06:08:50;;;;;;;1.07;1.07;;;;;;;9.23;53.63;99801.19;1694760;83;20974;-69
2022/04/17 06:11:17;;;;;;;0.98;0.98;;;;;;;9.60;52.12;99798.31;1693023;83;20935;-69
2022/04/17 06:13:44;;;;;;;1.25;1.15;;;;;;;9.98;50.51;99795.72;1692928;84;20999;-66
2022/04/17 06:16:12;;;;;;;1.40;1.30;;;;;;;9.93;49.86;99802.33;1691815;83;20954;-67
2022/04/17 06:18:40;;;;;;;0.95;0.95;;;;;;;10.00;49.48;99797.22;1695943;83;21157;-65
2022/04/17 06:21:10;;;;;;;2.40;1.32;;;;;;;10.05;49.19;99800.73;1694618;83;21012;-67
2022/04/17 06:23:37;;;;;;;1.00;0.95;;;;;;;9.96;48.95;99804.35;1651842;86;20927;-66
2022/04/17 06:26:06;;;;;;;1.10;1.00;;;;;;;9.83;48.79;99805.59;1690593;84;21489;-67
2022/04/17 06:28:34;;;;;;;2.30;1.10;;;;;;;9.93;48.62;99800.19;1673533;84;21058;-68
2022/04/17 06:31:00;;;;;;;1.72;1.62;;;;;;;9.87;48.81;99800.32;1702690;83;21491;-67
2022/04/17 06:33:28;;;;;;;1.50;1.10;;;;;;;9.86;48.72;99804.45;1689041;83;21516;-69
2022/04/17 06:35:55;;;;;;;1.10;1.10;;;;;;;9.91;48.64;99806.97;1696008;83;21526;-68
2022/04/17 06:38:23;;;;;;;1.12;1.05;;;;;;;10.05;48.57;99807.38;1691952;83;21098;-68
2022/04/17 06:40:50;;;;;;;1.27;1.20;;;;;;;10.17;48.02;99804.79;1686550;83;20907;-66
2022/04/17 06:43:16;;;;;;;1.20;1.20;;;;;;;10.27;47.76;99808.98;1695200;84;21270;-67
2022/04/17 06:45:44;;;;;;;1.30;1.10;;;;;;;10.65;47.14;99805.46;1690808;84;20949;-67
2022/04/17 06:48:19;;;;;;;0.80;0.80;;;;;;;11.21;46.79;99811.37;1693600;84;21113;-67
2022/04/17 06:50:50;;;;;;;1.87;1.77;;;;;;;11.86;45.78;99807.67;1653962;84;21474;-67
2022/04/17 06:53:17;;;;;;;1.92;1.72;;;;;;;12.75;44.60;99807.25;1693448;84;20883;-66
2022/04/17 06:55:44;;;;;;;1.47;1.25;;;;;;;13.48;43.18;99803.56;1690944;83;22106;-66
2022/04/17 06:58:10;;;;;;;0.90;0.90;;;;;;;14.44;41.47;99803.56;1693363;84;21029;-65
2022/04/17 07:00:37;;;;;;;0.93;0.90;;;;;;;14.57;38.69;99791.14;1649865;86;20951;-66
2022/04/17 07:03:04;;;;;;;1.40;1.00;;;;;;;15.06;38.14;99801.16;1693001;84;21571;-67
2022/04/17 07:05:32;;;;;;;1.12;1.10;;;;;;;15.06;37.48;99788.59;1692076;84;20970;-69
2022/04/17 07:08:05;;;;;;;1.12;0.80;;;;;;;15.19;37.46;99799.44;1693171;84;21257;-67
2022/04/17 07:10:39;;;;;;;2.27;1.00;;;;;;;15.10;37.64;99798.41;1692209;84;21525;-68
2022/04/17 07:13:11;;;;;;;1.00;1.00;;;;;;;14.96;37.80;99800.14;1687883;84;20998;-66
2022/04/17 07:15:39;;;;;;;1.10;1.00;;;;;;;14.73;37.75;99804.30;1681026;84;20874;-68
2022/04/17 07:18:07;;;;;;;1.30;0.80;;;;;;;14.39;37.88;99809.98;1693170;84;21008;-68
2022/04/17 07:20:35;;;;;;;1.20;1.07;;;;;;;14.04;38.34;99803.50;1660073;84;22085;-65
2022/04/17 07:23:03;;;;;;;0.88;0.88;;;;;;;14.44;37.32;99797.70;1692858;84;21010;-67
2022/04/17 07:25:30;;;;;;;1.25;1.07;;;;;;;14.23;37.30;99801.61;1689356;84;21014;-64
2022/04/17 07:27:57;;;;;;;1.35;1.25;;;;;;;13.99;37.63;99794.70;1692869;84;20962;-67
2022/04/17 07:30:28;;;;;;;1.60;0.80;;;;;;;13.45;38.08;99803.42;1693564;84;20951;-66
2022/04/17 07:32:56;;;;;;;0.90;0.90;;;;;;;13.01;38.88;99804.58;1682191;84;21467;-68
2022/04/17 07:35:26;;;;;;;2.15;1.57;;;;;;;13.06;38.88;99800.06;1687031;84;21469;-67
2022/04/17 07:37:55;;;;;;;1.40;1.20;;;;;;;13.21;38.92;99795.63;1698897;83;20907;-70
2022/04/17 07:40:25;;;;;;;1.17;1.00;;;;;;;13.40;38.62;99792.44;1689923;83;21138;-67
2022/04/17 07:42:53;;;;;;;0.78;0.78;;;;;;;13.77;38.12;99786.73;1688539;83;21055;-65
2022/04/17 07:45:21;;;;;;;1.72;1.00;;;;;;;14.70;37.43;99786.47;1690714;84;21430;-65
2022/04/17 07:47:48;;;;;;;0.93;0.72;;;;;;;15.82;36.27;99777.59;1688540;84;20951;-65
2022/04/17 07:50:17;;;;;;;0.88;0.78;;;;;;;16.38;35.32;99779.13;1691543;83;21513;-67
2022/04/17 07:52:45;;;;;;;1.22;1.00;;;;;;;17.78;33.20;99772.75;1691853;83;21066;-67
2022/04/17 07:55:14;;;;;;;0.93;0.90;;;;;;;18.73;31.16;99765.81;1684296;83;21034;-66
2022/04/17 07:57:59;;;;;;;0.70;0.70;;;;;;;19.34;28.97;99768.22;1688800;84;21178;-64
2022/04/17 08:00:27;;;;;;;1.02;0.95;;;;;;;19.47;28.69;99761.40;1691506;84;21062;-69
2022/04/17 08:03:09;;;;;;;0.95;0.85;;;;;;;18.64;28.40;99761.73;1691921;83;21046;-64
2022/04/17 08:05:38;;;;;;;1.60;0.90;;;;;;;18.06;28.66;99768.46;1688969;83;20903;-69
2022/04/17 08:08:08;;;;;;;0.85;0.80;;;;;;;17.26;29.40;99773.57;1693245;83;21446;-66
2022/04/17 08:10:36;;;;;;;1.42;0.80;;;;;;;16.49;29.42;99770.50;1690408;84;21093;-65
2022/04/17 08:13:04;;;;;;;1.65;1.55;;;;;;;15.61;30.59;99773.63;1691793;83;20963;-60
2022/04/17 08:15:32;;;;;;;0.98;0.95;;;;;;;14.89;31.30;99779.13;1691063;83;20963;-68
2022/04/17 08:18:00;;;;;;;0.50;0.50;;;;;;;14.28;32.08;99780.98;1690678;84;21008;-65
2022/04/17 08:20:28;;;;;;;1.00;0.90;;;;;;;13.66;32.91;99777.85;1691474;83;20905;-65
2022/04/17 08:22:55;;;;;;;0.60;0.60;;;;;;;13.06;33.67;99780.03;1686922;81;21408;-65
2022/04/17 08:25:22;;;;;;;0.60;0.60;;;;;;;12.50;33.91;99778.56;1676180;84;20985;-66
2022/04/17 08:27:51;;;;;;;1.02;0.70;;;;;;;12.05;34.45;99783.75;1673547;84;21465;-66
2022/04/17 08:30:30;;;;;;;0.70;0.70;;;;;;;11.74;35.17;99781.86;1671999;85;21525;-63
2022/04/17 08:32:58;;;;;;;0.53;0.53;;;;;;;11.48;35.68;99789.20;1682496;84;21010;-65
2022/04/17 08:35:24;;;;;;;0.50;0.50;;;;;;;11.15;36.11;99781.75;1685072;84;21340;-64
2022/04/17 08:37:52;;;;;;;0.88;0.78;;;;;;;10.89;36.44;99780.23;1679576;84;20991;-65
2022/04/17 08:40:18;;;;;;;0.53;0.53;;;;;;;10.64;36.87;99778.54;1661517;83;21024;-65
2022/04/17 08:42:45;;;;;;;1.10;0.82;;;;;;;10.42;36.89;99769.33;1675404;84;21106;-66
2022/04/17 08:45:13;;;;;;;0.70;0.70;;;;;;;10.24;36.57;99776.59;1676396;85;21066;-64
2022/04/17 08:47:42;;;;;;;0.70;0.60;;;;;;;10.15;36.74;99769.56;1670479;84;20955;-65
2022/04/17 08:50:10;;;;;;;1.67;0.65;;;;;;;10.13;36.81;99767.56;1663151;84;21446;-64
2022/04/17 08:52:38;;;;;;;0.40;0.40;;;;;;;10.08;36.58;99767.19;1681078;84;21444;-66
2022/04/17 08:55:06;;;;;;;0.70;0.40;;;;;;;10.10;36.46;99771.84;1672643;84;21010;-64
2022/04/17 08:57:32;;;;;;;2.00;1.00;;;;;;;10.69;35.60;99761.06;1669725;84;21026;-65
2022/04/17 09:00:00;;;;;;;0.60;0.60;;;;;;;11.26;34.09;99753.95;1657328;85;21431;-64
2022/04/17 09:02:26;;;;;;;0.57;0.45;;;;;;;11.55;33.88;99749.41;1681593;84;21033;-67
2022/04/17 09:04:53;;;;;;;0.62;0.40;;;;;;;12.20;32.80;99740.72;1702509;83;20980;-67
2022/04/17 09:07:20;;;;;;;0.70;0.55;;;;;;;13.63;31.34;99733.61;1725708;82;20979;-68
2022/04/17 09:09:52;;;;;;;1.00;0.80;;;;;;;14.91;29.46;99720.87;1718500;81;21075;-65
2022/04/17 09:12:25;;;;;;;1.00;0.30;;;;;;;16.11;28.12;99714.80;1720016;81;20889;-64
2022/04/17 09:14:56;;;;;;;0.33;0.30;;;;;;;17.28;26.65;99701.59;1717825;81;20947;-68
2022/04/17 09:17:31;;;;;;;1.40;0.40;;;;;;;18.47;25.23;99692.19;1720037;81;20935;-69
2022/04/17 09:19:58;;;;;;;0.90;0.42;;;;;;;18.75;24.43;99695.01;1723351;81;21006;-72
2022/04/17 09:22:25;;;;;;;0.23;0.23;;;;;;;19.78;23.17;99693.00;1717404;81;21053;-69
2022/04/17 09:24:52;;;;;;;0.30;0.30;;;;;;;20.56;22.84;99691.22;1713497;83;22262;-73
2022/04/17 09:27:19;;;;;;;1.00;0.90;;;;;;;20.54;22.46;99686.58;1712000;82;21478;-70
2022/04/17 09:29:45;;;;;;;3.15;1.40;;;;;;;20.89;20.68;99674.48;1673444;83;21069;-68
2022/04/17 09:32:13;;;;;;;0.37;0.30;;;;;;;20.07;21.14;99685.50;1716427;82;21536;-68
2022/04/17 09:34:50;;;;;;;0.40;0.37;;;;;;;19.43;21.95;99675.70;1704266;83;20974;-66
2022/04/17 09:37:23;;;;;;;0.80;0.40;;;;;;;18.83;21.92;99674.53;1709841;82;20896;-70
2022/04/17 09:39:54;;;;;;;1.92;1.00;;;;;;;18.72;22.04;99688.73;1714177;82;21446;-67
2022/04/17 09:42:29;;;;;;;0.45;0.45;;;;;;;17.72;22.78;99677.26;1713088;82;21574;-67
2022/04/17 09:44:55;;;;;;;1.52;0.35;;;;;;;17.09;23.45;99676.91;1711287;83;21552;-68
2022/04/17 09:47:27;;;;;;;0.30;0.30;;;;;;;16.98;23.65;99680.72;1714461;83;20963;-68
2022/04/17 09:50:06;;;;;;;1.45;0.30;;;;;;;17.85;23.09;99674.02;1711379;83;21826;-68
2022/04/17 09:52:44;;;;;;;0.30;0.30;;;;;;;17.36;23.26;99662.10;1722340;82;20983;-69
2022/04/17 09:55:10;;;;;;;0.30;0.30;;;;;;;17.05;23.22;99664.91;1720171;82;20940;-66
2022/04/17 09:57:45;;;;;;;0.50;0.50;;;;;;;16.89;23.01;99661.31;1703702;83;21422;-67
2022/04/17 10:00:18;;;;;;;1.52;0.35;;;;;;;16.34;23.43;99668.31;1710127;83;21059;-65
2022/04/17 10:02:46;;;;;;;0.40;0.40;;;;;;;15.75;24.04;99666.73;1682045;85;21194;-67
2022/04/17 10:05:17;;;;;;;0.30;0.30;;;;;;;15.31;24.47;99657.17;1719596;82;20991;-68
2022/04/17 10:07:48;;;;;;;2.65;2.27;;;;;;;14.94;24.89;99662.86;1709884;82;21461;-66
2022/04/17 10:10:16;;;;;;;2.52;2.33;;;;;;;15.30;24.83;99646.66;1717339;82;20931;-68
2022/04/17 10:12:45;;;;;;;0.78;0.78;;;;;;;15.23;25.33;99647.11;1719473;82;20955;-64
2022/04/17 10:15:13;;;;;;;0.68;0.50;;;;;;;15.11;25.05;99648.17;1717260;82;21042;-66
2022/04/17 10:17:44;;;;;;;0.50;0.50;;;;;;;14.78;25.23;99645.75;1718572;83;20891;-67
2022/04/17 10:20:13;;;;;;;0.28;0.28;;;;;;;14.47;25.46;99649.28;1717098;82;21624;-63
2022/04/17 10:22:47;;;;;;;0.85;0.47;;;;;;;14.21;25.78;99649.77;1706691;83;20955;-64
2022/04/17 10:25:14;;;;;;;0.40;0.40;;;;;;;14.13;26.19;99645.91;1714013;83;20940;-66
2022/04/17 10:27:45;;;;;;;4.05;1.80;;;;;;;14.09;26.18;99639.25;1712675;83;22076;-66
2022/04/17 10:30:15;;;;;;;1.02;0.93;;;;;;;13.84;26.30;99625.91;1711898;82;21022;-65
2022/04/17 10:33:23;;;;;;;1.50;0.53;;;;;;;13.55;26.29;99634.30;1714252;82;20998;-67
2022/04/17 10:36:11;;;;;;;0.53;0.40;;;;;;;13.37;26.68;99631.67;1706155;82;21438;-66
2022/04/17 10:39:22;;;;;;;0.45;0.40;;;;;;;13.19;27.23;99633.34;1713049;81;21005;-66
2022/04/17 10:41:48;;;;;;;0.42;0.40;;;;;;;13.08;27.85;99629.81;1680408;83;21276;-65
2022/04/17 10:44:15;;;;;;;1.17;0.60;;;;;;;13.15;27.96;99628.05;1668576;84;21489;-66
2022/04/17 10:46:49;;;;;;;0.57;0.57;;;;;;;13.11;27.97;99629.45;1693918;83;21062;-67
2022/04/17 10:49:21;;;;;;;0.68;0.60;;;;;;;13.09;27.87;99634.66;1673472;84;20963;-66
2022/04/17 10:51:55;;;;;;;0.68;0.40;;;;;;;13.05;27.91;99634.14;1691438;83;20971;-66
2022/04/17 10:54:22;;;;;;;1.25;1.10;;;;;;;13.03;27.86;99634.84;1706180;82;21298;-65
2022/04/17 10:56:59;;;;;;;1.52;1.10;;;;;;;12.97;28.27;99627.55;1709265;82;20923;-66
2022/04/17 10:59:33;;;;;;;1.15;0.75;;;;;;;12.96;28.45;99627.20;1714643;82;21627;-66
2022/04/17 11:02:04;;;;;;;2.15;1.67;;;;;;;13.12;28.58;99619.56;1703118;82;21035;-66
2022/04/17 11:04:39;;;;;;;0.88;0.70;;;;;;;13.28;28.55;99611.38;1713748;82;21003;-68
2022/04/17 11:07:12;;;;;;;0.75;0.47;;;;;;;13.46;28.10;99608.66;1687058;83;21833;-65
2022/04/17 11:09:44;;;;;;;0.40;0.40;;;;;;;13.57;27.82;99605.53;1701184;82;21381;-67
2022/04/17 11:12:21;;;;;;;0.28;0.28;;;;;;;13.66;27.44;99604.89;1701659;83;20939;-68
2022/04/17 11:15:03;;;;;;;0.20;0.20;;;;;;;13.79;27.28;99602.91;1714127;82;21032;-70
2022/04/17 11:17:32;;;;;;;0.40;0.37;;;;;;;13.89;27.06;99594.08;1693107;83;21289;-67
2022/04/17 11:20:00;;;;;;;0.95;0.40;;;;;;;14.07;26.52;99585.12;1714168;83;21307;-70
2022/04/17 11:22:29;;;;;;;0.88;0.60;;;;;;;14.27;26.13;99586.64;1713885;82;20879;-69
2022/04/17 11:25:02;;;;;;;0.88;0.42;;;;;;;14.40;26.00;99584.13;1715113;82;21500;-71
2022/04/17 11:27:41;;;;;;;0.30;0.30;;;;;;;14.43;24.96;99574.37;1714792;82;21591;-68
2022/04/17 11:30:25;;;;;;;1.07;0.40;;;;;;;14.40;24.99;99577.44;1703211;83;20896;-67
2022/04/17 11:32:51;;;;;;;0.98;0.50;;;;;;;14.28;24.94;99574.94;1712712;82;21254;-66
2022/04/17 11:35:22;;;;;;;3.55;0.40;;;;;;;14.28;25.20;99565.06;1703165;82;20860;-69
2022/04/17 11:38:01;;;;;;;0.37;0.37;;;;;;;14.29;24.98;99562.69;1712758;82;20976;-67
2022/04/17 11:40:34;;;;;;;0.62;0.40;;;;;;;14.29;24.85;99557.34;1714285;83;21631;-70
2022/04/17 11:43:10;;;;;;;2.58;0.40;;;;;;;14.26;24.23;99564.94;1726824;82;21012;-67
2022/04/17 11:45:37;;;;;;;4.72;0.57;;;;;;;14.12;23.81;99562.64;1722081;82;26161;-66
2022/04/17 11:48:07;;;;;;;2.50;0.45;;;;;;;13.99;24.13;99557.16;1713291;83;21002;-67
2022/04/17 11:50:34;;;;;;;0.37;0.35;;;;;;;13.91;24.55;99543.41;1713538;82;20994;-67
2022/04/17 11:53:04;;;;;;;3.65;0.50;;;;;;;13.97;24.61;99545.83;1689017;83;21015;-67
2022/04/17 11:55:37;;;;;;;0.62;0.40;;;;;;;14.00;23.54;99556.15;1677408;83;20999;-67
2022/04/17 11:58:03;;;;;;;0.50;0.40;;;;;;;13.99;22.98;99550.47;1723706;82;21147;-66
2022/04/17 12:00:31;;;;;;;0.23;0.23;;;;;;;13.88;23.04;99546.95;1718002;83;20954;-66